sensor_id;sensor_type;location;lat;lon;timestamp;P1;durP1;ratioP1;P2;durP2;ratioP2
1475;SDS011;730;48.870;12.542;2023-03-08T00:01:18;20.83;;;16.27;;
1475;SDS011;730;48.870;12.542;2023-03-08T00:03:49;13.82;;;12.10;;
1475;SDS011;730;48.870;12.542;2023-03-08T00:06:19;20.55;;;12.98;;
1475;SDS011;730;48.870;12.542;2023-03-08T00:08:46;15.32;;;13.05;;
1475;SDS011;730;48.870;12.542;2023-03-08T00:11:12;7.55;;;5.75;;
1475;SDS011;730;48.870;12.542;2023-03-08T00:13:39;6.32;;;5.28;;
1475;SDS011;730;48.870;12.542;2023-03-08T00:16:06;8.02;;;6.50;;
1475;SDS011;730;48.870;12.542;2023-03-08T00:18:34;7.97;;;5.43;;
1475;SDS011;730;48.870;12.542;2023-03-08T00:21:02;6.15;;;4.32;;
1475;SDS011;730;48.870;12.542;2023-03-08T00:23:30;8.02;;;5.32;;
1475;SDS011;730;48.870;12.542;2023-03-08T00:25:56;8.63;;;5.47;;
1475;SDS011;730;48.870;12.542;2023-03-08T00:28:22;6.07;;;4.78;;
1475;SDS011;730;48.870;12.542;2023-03-08T00:31:02;7.40;;;6.47;;
1475;SDS011;730;48.870;12.542;2023-03-08T00:33:30;8.40;;;6.68;;
1475;SDS011;730;48.870;12.542;2023-03-08T00:35:57;6.88;;;4.85;;
1475;SDS011;730;48.870;12.542;2023-03-08T00:38:25;8.32;;;6.00;;
1475;SDS011;730;48.870;12.542;2023-03-08T00:40:52;7.45;;;5.18;;
1475;SDS011;730;48.870;12.542;2023-03-08T00:43:18;8.38;;;5.72;;
1475;SDS011;730;48.870;12.542;2023-03-08T00:45:45;8.00;;;5.63;;
1475;SDS011;730;48.870;12.542;2023-03-08T00:48:11;7.13;;;5.43;;
1475;SDS011;730;48.870;12.542;2023-03-08T00:50:37;6.28;;;4.80;;
1475;SDS011;730;48.870;12.542;2023-03-08T00:53:03;6.38;;;5.28;;
1475;SDS011;730;48.870;12.542;2023-03-08T00:55:29;6.93;;;5.55;;
1475;SDS011;730;48.870;12.542;2023-03-08T00:57:55;6.75;;;5.32;;
1475;SDS011;730;48.870;12.542;2023-03-08T01:00:21;6.65;;;5.32;;
1475;SDS011;730;48.870;12.542;2023-03-08T01:02:48;5.38;;;4.80;;
1475;SDS011;730;48.870;12.542;2023-03-08T01:05:15;7.55;;;6.00;;
1475;SDS011;730;48.870;12.542;2023-03-08T01:07:41;8.65;;;6.25;;
1475;SDS011;730;48.870;12.542;2023-03-08T01:10:07;7.45;;;5.75;;
1475;SDS011;730;48.870;12.542;2023-03-08T01:12:34;7.32;;;6.10;;
1475;SDS011;730;48.870;12.542;2023-03-08T01:15:01;7.65;;;5.80;;
1475;SDS011;730;48.870;12.542;2023-03-08T01:17:28;5.70;;;4.65;;
1475;SDS011;730;48.870;12.542;2023-03-08T01:19:54;9.38;;;6.35;;
1475;SDS011;730;48.870;12.542;2023-03-08T01:22:20;7.53;;;5.43;;
1475;SDS011;730;48.870;12.542;2023-03-08T01:24:46;6.15;;;5.00;;
1475;SDS011;730;48.870;12.542;2023-03-08T01:27:13;6.15;;;4.70;;
1475;SDS011;730;48.870;12.542;2023-03-08T01:29:41;5.28;;;4.00;;
1475;SDS011;730;48.870;12.542;2023-03-08T01:32:08;7.38;;;5.53;;
1475;SDS011;730;48.870;12.542;2023-03-08T01:34:37;6.25;;;5.13;;
1475;SDS011;730;48.870;12.542;2023-03-08T01:37:04;6.00;;;5.40;;
1475;SDS011;730;48.870;12.542;2023-03-08T01:39:30;6.15;;;5.18;;
1475;SDS011;730;48.870;12.542;2023-03-08T01:41:56;7.80;;;5.18;;
1475;SDS011;730;48.870;12.542;2023-03-08T01:44:23;6.35;;;4.65;;
1475;SDS011;730;48.870;12.542;2023-03-08T01:46:51;9.32;;;5.60;;
1475;SDS011;730;48.870;12.542;2023-03-08T01:49:31;5.60;;;5.10;;
1475;SDS011;730;48.870;12.542;2023-03-08T01:52:11;7.25;;;5.00;;
1475;SDS011;730;48.870;12.542;2023-03-08T01:54:48;7.68;;;5.13;;
1475;SDS011;730;48.870;12.542;2023-03-08T01:57:24;7.05;;;6.22;;
1475;SDS011;730;48.870;12.542;2023-03-08T01:59:55;6.93;;;5.45;;
1475;SDS011;730;48.870;12.542;2023-03-08T02:02:24;9.68;;;5.85;;
1475;SDS011;730;48.870;12.542;2023-03-08T02:04:56;6.90;;;5.13;;
1475;SDS011;730;48.870;12.542;2023-03-08T02:07:22;6.90;;;4.72;;
1475;SDS011;730;48.870;12.542;2023-03-08T02:09:48;5.78;;;4.78;;
1475;SDS011;730;48.870;12.542;2023-03-08T02:12:15;7.90;;;5.13;;
1475;SDS011;730;48.870;12.542;2023-03-08T02:14:42;7.30;;;4.90;;
1475;SDS011;730;48.870;12.542;2023-03-08T02:17:09;8.00;;;4.88;;
1475;SDS011;730;48.870;12.542;2023-03-08T02:22:13;7.45;;;5.60;;
1475;SDS011;730;48.870;12.542;2023-03-08T02:24:40;7.10;;;5.40;;
1475;SDS011;730;48.870;12.542;2023-03-08T02:27:12;6.43;;;4.95;;
1475;SDS011;730;48.870;12.542;2023-03-08T02:29:44;6.72;;;5.18;;
1475;SDS011;730;48.870;12.542;2023-03-08T02:32:10;8.05;;;5.40;;
1475;SDS011;730;48.870;12.542;2023-03-08T02:34:36;6.82;;;5.53;;
1475;SDS011;730;48.870;12.542;2023-03-08T02:37:03;6.82;;;5.70;;
1475;SDS011;730;48.870;12.542;2023-03-08T02:39:30;6.40;;;5.05;;
1475;SDS011;730;48.870;12.542;2023-03-08T02:42:02;6.25;;;4.80;;
1475;SDS011;730;48.870;12.542;2023-03-08T02:44:28;7.93;;;4.47;;
1475;SDS011;730;48.870;12.542;2023-03-08T02:46:54;5.93;;;4.63;;
1475;SDS011;730;48.870;12.542;2023-03-08T02:49:20;5.20;;;4.70;;
1475;SDS011;730;48.870;12.542;2023-03-08T02:51:46;5.53;;;4.63;;
1475;SDS011;730;48.870;12.542;2023-03-08T02:54:12;6.90;;;4.20;;
1475;SDS011;730;48.870;12.542;2023-03-08T02:56:38;7.70;;;4.32;;
1475;SDS011;730;48.870;12.542;2023-03-08T02:59:04;5.43;;;4.60;;
1475;SDS011;730;48.870;12.542;2023-03-08T03:01:30;9.63;;;5.43;;
1475;SDS011;730;48.870;12.542;2023-03-08T03:03:56;5.43;;;4.63;;
1475;SDS011;730;48.870;12.542;2023-03-08T03:06:22;7.40;;;5.43;;
1475;SDS011;730;48.870;12.542;2023-03-08T03:08:48;6.87;;;5.10;;
1475;SDS011;730;48.870;12.542;2023-03-08T03:11:19;6.70;;;5.50;;
1475;SDS011;730;48.870;12.542;2023-03-08T03:13:46;6.95;;;4.50;;
1475;SDS011;730;48.870;12.542;2023-03-08T03:16:18;6.78;;;4.70;;
1475;SDS011;730;48.870;12.542;2023-03-08T03:18:44;8.90;;;4.97;;
1475;SDS011;730;48.870;12.542;2023-03-08T03:21:11;7.80;;;6.23;;
1475;SDS011;730;48.870;12.542;2023-03-08T03:23:39;7.40;;;5.45;;
1475;SDS011;730;48.870;12.542;2023-03-08T03:26:06;7.43;;;4.78;;
1475;SDS011;730;48.870;12.542;2023-03-08T03:28:37;7.10;;;5.10;;
1475;SDS011;730;48.870;12.542;2023-03-08T03:31:07;6.25;;;4.82;;
1475;SDS011;730;48.870;12.542;2023-03-08T03:33:35;6.47;;;4.97;;
1475;SDS011;730;48.870;12.542;2023-03-08T03:36:01;7.10;;;5.63;;
1475;SDS011;730;48.870;12.542;2023-03-08T03:38:28;8.00;;;4.93;;
1475;SDS011;730;48.870;12.542;2023-03-08T03:41:00;10.40;;;5.18;;
1475;SDS011;730;48.870;12.542;2023-03-08T03:43:27;6.78;;;4.68;;
1475;SDS011;730;48.870;12.542;2023-03-08T03:45:54;5.25;;;4.28;;
1475;SDS011;730;48.870;12.542;2023-03-08T03:48:21;6.38;;;4.75;;
1475;SDS011;730;48.870;12.542;2023-03-08T03:50:57;7.20;;;5.00;;
1475;SDS011;730;48.870;12.542;2023-03-08T03:53:26;7.55;;;5.00;;
1475;SDS011;730;48.870;12.542;2023-03-08T03:55:53;7.97;;;5.45;;
1475;SDS011;730;48.870;12.542;2023-03-08T03:58:20;7.93;;;6.32;;
1475;SDS011;730;48.870;12.542;2023-03-08T04:00:46;6.75;;;4.70;;
1475;SDS011;730;48.870;12.542;2023-03-08T04:03:13;6.97;;;5.82;;
1475;SDS011;730;48.870;12.542;2023-03-08T04:05:39;8.90;;;5.97;;
1475;SDS011;730;48.870;12.542;2023-03-08T04:08:06;5.83;;;4.80;;
1475;SDS011;730;48.870;12.542;2023-03-08T04:10:32;6.97;;;5.03;;
1475;SDS011;730;48.870;12.542;2023-03-08T04:12:58;6.20;;;5.22;;
1475;SDS011;730;48.870;12.542;2023-03-08T04:15:24;9.15;;;5.57;;
1475;SDS011;730;48.870;12.542;2023-03-08T04:17:51;5.80;;;4.53;;
1475;SDS011;730;48.870;12.542;2023-03-08T04:20:18;7.38;;;5.93;;
1475;SDS011;730;48.870;12.542;2023-03-08T04:22:44;7.78;;;5.32;;
1475;SDS011;730;48.870;12.542;2023-03-08T04:25:10;6.90;;;5.70;;
1475;SDS011;730;48.870;12.542;2023-03-08T04:27:36;5.38;;;4.78;;
1475;SDS011;730;48.870;12.542;2023-03-08T04:30:02;6.23;;;4.73;;
1475;SDS011;730;48.870;12.542;2023-03-08T04:32:32;5.65;;;5.05;;
1475;SDS011;730;48.870;12.542;2023-03-08T04:34:58;6.75;;;5.18;;
1475;SDS011;730;48.870;12.542;2023-03-08T04:37:24;5.77;;;4.93;;
1475;SDS011;730;48.870;12.542;2023-03-08T04:39:50;7.80;;;5.10;;
1475;SDS011;730;48.870;12.542;2023-03-08T04:42:16;5.35;;;4.82;;
1475;SDS011;730;48.870;12.542;2023-03-08T04:44:43;5.60;;;4.57;;
1475;SDS011;730;48.870;12.542;2023-03-08T04:47:09;8.85;;;4.95;;
1475;SDS011;730;48.870;12.542;2023-03-08T04:49:35;7.78;;;5.70;;
1475;SDS011;730;48.870;12.542;2023-03-08T04:52:01;7.80;;;5.40;;
1475;SDS011;730;48.870;12.542;2023-03-08T04:54:27;8.67;;;6.27;;
1475;SDS011;730;48.870;12.542;2023-03-08T04:56:53;5.93;;;4.82;;
1475;SDS011;730;48.870;12.542;2023-03-08T04:59:19;7.85;;;6.15;;
1475;SDS011;730;48.870;12.542;2023-03-08T05:01:45;8.13;;;5.80;;
1475;SDS011;730;48.870;12.542;2023-03-08T05:04:11;5.17;;;4.67;;
1475;SDS011;730;48.870;12.542;2023-03-08T05:06:39;8.93;;;5.43;;
1475;SDS011;730;48.870;12.542;2023-03-08T05:09:05;7.63;;;5.60;;
1475;SDS011;730;48.870;12.542;2023-03-08T05:11:31;8.80;;;6.17;;
1475;SDS011;730;48.870;12.542;2023-03-08T05:13:57;7.80;;;6.27;;
1475;SDS011;730;48.870;12.542;2023-03-08T05:16:24;9.90;;;7.95;;
1475;SDS011;730;48.870;12.542;2023-03-08T05:18:50;10.10;;;9.10;;
1475;SDS011;730;48.870;12.542;2023-03-08T05:21:18;10.50;;;8.55;;
1475;SDS011;730;48.870;12.542;2023-03-08T05:23:45;10.27;;;9.00;;
1475;SDS011;730;48.870;12.542;2023-03-08T05:26:13;9.95;;;8.07;;
1475;SDS011;730;48.870;12.542;2023-03-08T05:28:40;8.55;;;7.03;;
1475;SDS011;730;48.870;12.542;2023-03-08T05:33:35;11.93;;;10.25;;
1475;SDS011;730;48.870;12.542;2023-03-08T05:36:02;13.30;;;10.70;;
1475;SDS011;730;48.870;12.542;2023-03-08T05:38:29;8.48;;;7.40;;
1475;SDS011;730;48.870;12.542;2023-03-08T05:40:59;8.93;;;7.43;;
1475;SDS011;730;48.870;12.542;2023-03-08T05:43:26;9.82;;;8.70;;
1475;SDS011;730;48.870;12.542;2023-03-08T05:45:53;15.35;;;11.43;;
1475;SDS011;730;48.870;12.542;2023-03-08T05:48:21;16.58;;;10.82;;
1475;SDS011;730;48.870;12.542;2023-03-08T05:50:48;13.07;;;10.93;;
1475;SDS011;730;48.870;12.542;2023-03-08T05:53:15;22.08;;;17.40;;
1475;SDS011;730;48.870;12.542;2023-03-08T05:55:41;14.25;;;11.30;;
1475;SDS011;730;48.870;12.542;2023-03-08T05:58:07;10.82;;;8.57;;
1475;SDS011;730;48.870;12.542;2023-03-08T06:00:33;12.05;;;9.48;;
1475;SDS011;730;48.870;12.542;2023-03-08T06:02:59;9.57;;;8.30;;
1475;SDS011;730;48.870;12.542;2023-03-08T06:05:29;13.77;;;10.80;;
1475;SDS011;730;48.870;12.542;2023-03-08T06:07:56;11.40;;;9.20;;
1475;SDS011;730;48.870;12.542;2023-03-08T06:10:22;10.13;;;7.50;;
1475;SDS011;730;48.870;12.542;2023-03-08T06:12:48;13.98;;;11.23;;
1475;SDS011;730;48.870;12.542;2023-03-08T06:15:14;10.85;;;8.00;;
1475;SDS011;730;48.870;12.542;2023-03-08T06:17:40;9.40;;;6.70;;
1475;SDS011;730;48.870;12.542;2023-03-08T06:20:07;7.88;;;6.63;;
1475;SDS011;730;48.870;12.542;2023-03-08T06:22:33;10.52;;;6.63;;
1475;SDS011;730;48.870;12.542;2023-03-08T06:25:00;8.30;;;7.40;;
1475;SDS011;730;48.870;12.542;2023-03-08T06:27:26;8.32;;;7.35;;
1475;SDS011;730;48.870;12.542;2023-03-08T06:29:52;8.77;;;7.57;;
1475;SDS011;730;48.870;12.542;2023-03-08T06:32:18;15.85;;;9.75;;
1475;SDS011;730;48.870;12.542;2023-03-08T06:34:45;18.52;;;14.93;;
1475;SDS011;730;48.870;12.542;2023-03-08T06:37:12;18.80;;;15.77;;
1475;SDS011;730;48.870;12.542;2023-03-08T06:39:38;23.17;;;17.65;;
1475;SDS011;730;48.870;12.542;2023-03-08T06:42:04;13.23;;;10.15;;
1475;SDS011;730;48.870;12.542;2023-03-08T06:44:31;12.18;;;9.57;;
1475;SDS011;730;48.870;12.542;2023-03-08T06:46:57;12.30;;;8.50;;
1475;SDS011;730;48.870;12.542;2023-03-08T06:49:23;11.15;;;7.90;;
1475;SDS011;730;48.870;12.542;2023-03-08T06:51:49;11.82;;;7.95;;
1475;SDS011;730;48.870;12.542;2023-03-08T06:54:15;10.93;;;7.75;;
1475;SDS011;730;48.870;12.542;2023-03-08T06:56:43;11.20;;;8.25;;
1475;SDS011;730;48.870;12.542;2023-03-08T06:59:10;9.10;;;6.20;;
1475;SDS011;730;48.870;12.542;2023-03-08T07:01:37;10.38;;;7.68;;
1475;SDS011;730;48.870;12.542;2023-03-08T07:04:03;8.73;;;6.28;;
1475;SDS011;730;48.870;12.542;2023-03-08T07:06:29;10.63;;;6.35;;
1475;SDS011;730;48.870;12.542;2023-03-08T07:08:55;10.47;;;7.63;;
1475;SDS011;730;48.870;12.542;2023-03-08T07:11:21;12.07;;;8.18;;
1475;SDS011;730;48.870;12.542;2023-03-08T07:13:47;10.85;;;9.75;;
1475;SDS011;730;48.870;12.542;2023-03-08T07:16:13;11.23;;;8.30;;
1475;SDS011;730;48.870;12.542;2023-03-08T07:18:40;11.65;;;9.48;;
1475;SDS011;730;48.870;12.542;2023-03-08T07:21:07;8.60;;;6.93;;
1475;SDS011;730;48.870;12.542;2023-03-08T07:23:34;10.55;;;8.50;;
1475;SDS011;730;48.870;12.542;2023-03-08T07:26:06;11.18;;;8.45;;
1475;SDS011;730;48.870;12.542;2023-03-08T07:28:34;9.73;;;7.93;;
1475;SDS011;730;48.870;12.542;2023-03-08T07:31:00;10.35;;;7.60;;
1475;SDS011;730;48.870;12.542;2023-03-08T07:33:29;9.27;;;7.75;;
1475;SDS011;730;48.870;12.542;2023-03-08T07:35:57;11.80;;;8.60;;
1475;SDS011;730;48.870;12.542;2023-03-08T07:38:27;14.23;;;10.10;;
1475;SDS011;730;48.870;12.542;2023-03-08T07:40:54;13.13;;;8.90;;
1475;SDS011;730;48.870;12.542;2023-03-08T07:43:21;11.05;;;8.90;;
1475;SDS011;730;48.870;12.542;2023-03-08T07:45:48;11.50;;;9.57;;
1475;SDS011;730;48.870;12.542;2023-03-08T07:48:14;12.50;;;9.70;;
1475;SDS011;730;48.870;12.542;2023-03-08T07:50:40;11.77;;;10.57;;
1475;SDS011;730;48.870;12.542;2023-03-08T07:53:06;13.67;;;10.23;;
1475;SDS011;730;48.870;12.542;2023-03-08T07:55:32;13.23;;;10.35;;
1475;SDS011;730;48.870;12.542;2023-03-08T07:57:58;11.98;;;8.27;;
1475;SDS011;730;48.870;12.542;2023-03-08T08:00:24;11.40;;;8.70;;
1475;SDS011;730;48.870;12.542;2023-03-08T08:02:51;8.90;;;8.00;;
1475;SDS011;730;48.870;12.542;2023-03-08T08:05:18;12.15;;;10.05;;
1475;SDS011;730;48.870;12.542;2023-03-08T08:07:46;13.23;;;11.48;;
1475;SDS011;730;48.870;12.542;2023-03-08T08:10:12;13.02;;;11.13;;
1475;SDS011;730;48.870;12.542;2023-03-08T08:12:38;12.07;;;10.77;;
1475;SDS011;730;48.870;12.542;2023-03-08T08:15:04;12.97;;;10.40;;
1475;SDS011;730;48.870;12.542;2023-03-08T08:17:31;15.23;;;10.70;;
1475;SDS011;730;48.870;12.542;2023-03-08T08:19:57;12.68;;;11.38;;
1475;SDS011;730;48.870;12.542;2023-03-08T08:22:24;17.00;;;13.53;;
1475;SDS011;730;48.870;12.542;2023-03-08T08:24:50;14.80;;;12.43;;
1475;SDS011;730;48.870;12.542;2023-03-08T08:27:16;17.73;;;12.32;;
1475;SDS011;730;48.870;12.542;2023-03-08T08:29:42;17.43;;;14.23;;
1475;SDS011;730;48.870;12.542;2023-03-08T08:32:10;13.83;;;11.20;;
1475;SDS011;730;48.870;12.542;2023-03-08T08:34:36;11.60;;;9.73;;
1475;SDS011;730;48.870;12.542;2023-03-08T08:37:02;11.33;;;9.20;;
1475;SDS011;730;48.870;12.542;2023-03-08T08:39:28;11.30;;;10.10;;
1475;SDS011;730;48.870;12.542;2023-03-08T08:41:54;13.20;;;9.53;;
1475;SDS011;730;48.870;12.542;2023-03-08T08:44:20;10.93;;;9.60;;
1475;SDS011;730;48.870;12.542;2023-03-08T08:46:46;12.10;;;9.10;;
1475;SDS011;730;48.870;12.542;2023-03-08T08:49:13;12.40;;;11.10;;
1475;SDS011;730;48.870;12.542;2023-03-08T08:51:39;13.40;;;9.20;;
1475;SDS011;730;48.870;12.542;2023-03-08T08:54:05;10.60;;;7.70;;
1475;SDS011;730;48.870;12.542;2023-03-08T08:56:31;12.80;;;9.90;;
1475;SDS011;730;48.870;12.542;2023-03-08T08:59:01;11.97;;;8.00;;
1475;SDS011;730;48.870;12.542;2023-03-08T09:01:35;11.00;;;8.70;;
1475;SDS011;730;48.870;12.542;2023-03-08T09:04:04;13.70;;;8.77;;
1475;SDS011;730;48.870;12.542;2023-03-08T09:06:30;10.00;;;7.97;;
1475;SDS011;730;48.870;12.542;2023-03-08T09:08:59;10.17;;;9.03;;
1475;SDS011;730;48.870;12.542;2023-03-08T09:11:26;10.63;;;8.57;;
1475;SDS011;730;48.870;12.542;2023-03-08T09:13:52;13.53;;;9.70;;
1475;SDS011;730;48.870;12.542;2023-03-08T09:16:23;13.47;;;9.13;;
1475;SDS011;730;48.870;12.542;2023-03-08T09:18:54;15.60;;;12.20;;
1475;SDS011;730;48.870;12.542;2023-03-08T09:21:22;17.47;;;11.03;;
1475;SDS011;730;48.870;12.542;2023-03-08T09:23:49;58.67;;;33.10;;
1475;SDS011;730;48.870;12.542;2023-03-08T09:26:16;14.83;;;11.00;;
1475;SDS011;730;48.870;12.542;2023-03-08T09:28:43;16.63;;;9.93;;
1475;SDS011;730;48.870;12.542;2023-03-08T09:31:10;16.17;;;12.17;;
1475;SDS011;730;48.870;12.542;2023-03-08T09:33:40;19.83;;;15.20;;
1475;SDS011;730;48.870;12.542;2023-03-08T09:36:08;20.87;;;15.27;;
1475;SDS011;730;48.870;12.542;2023-03-08T09:38:34;10.10;;;8.10;;
1475;SDS011;730;48.870;12.542;2023-03-08T09:41:07;16.43;;;10.97;;
1475;SDS011;730;48.870;12.542;2023-03-08T09:46:37;25.58;;;19.80;;
1475;SDS011;730;48.870;12.542;2023-03-08T09:49:12;12.98;;;9.85;;
1475;SDS011;730;48.870;12.542;2023-03-08T09:51:47;14.80;;;11.47;;
1475;SDS011;730;48.870;12.542;2023-03-08T09:54:19;26.00;;;19.23;;
1475;SDS011;730;48.870;12.542;2023-03-08T09:56:48;17.00;;;9.60;;
1475;SDS011;730;48.870;12.542;2023-03-08T10:02:13;17.80;;;13.10;;
1475;SDS011;730;48.870;12.542;2023-03-08T10:04:52;14.53;;;10.57;;
1475;SDS011;730;48.870;12.542;2023-03-08T10:08:08;13.87;;;10.73;;
1475;SDS011;730;48.870;12.542;2023-03-08T10:15:51;13.05;;;9.88;;
1475;SDS011;730;48.870;12.542;2023-03-08T10:18:28;15.30;;;9.60;;
1475;SDS011;730;48.870;12.542;2023-03-08T10:21:03;11.67;;;9.50;;
1475;SDS011;730;48.870;12.542;2023-03-08T10:23:31;11.90;;;9.00;;
1475;SDS011;730;48.870;12.542;2023-03-08T10:25:58;11.77;;;9.30;;
1475;SDS011;730;48.870;12.542;2023-03-08T10:28:25;20.63;;;15.43;;
1475;SDS011;730;48.870;12.542;2023-03-08T10:30:56;16.23;;;11.73;;
1475;SDS011;730;48.870;12.542;2023-03-08T10:33:25;17.40;;;12.70;;
1475;SDS011;730;48.870;12.542;2023-03-08T10:36:16;15.82;;;12.70;;
1475;SDS011;730;48.870;12.542;2023-03-08T10:38:54;13.50;;;9.60;;
1475;SDS011;730;48.870;12.542;2023-03-08T10:41:22;12.37;;;10.33;;
1475;SDS011;730;48.870;12.542;2023-03-08T10:43:53;12.15;;;9.30;;
1475;SDS011;730;48.870;12.542;2023-03-08T10:46:23;11.60;;;9.17;;
1475;SDS011;730;48.870;12.542;2023-03-08T10:48:51;10.77;;;8.40;;
1475;SDS011;730;48.870;12.542;2023-03-08T10:51:18;17.93;;;13.50;;
1475;SDS011;730;48.870;12.542;2023-03-08T10:53:56;17.07;;;12.43;;
1475;SDS011;730;48.870;12.542;2023-03-08T10:56:38;10.73;;;9.00;;
1475;SDS011;730;48.870;12.542;2023-03-08T10:59:18;14.00;;;10.00;;
1475;SDS011;730;48.870;12.542;2023-03-08T11:01:48;14.27;;;10.70;;
1475;SDS011;730;48.870;12.542;2023-03-08T11:04:18;11.95;;;10.02;;
1475;SDS011;730;48.870;12.542;2023-03-08T11:06:45;11.32;;;9.60;;
1475;SDS011;730;48.870;12.542;2023-03-08T11:11:55;13.43;;;9.10;;
1475;SDS011;730;48.870;12.542;2023-03-08T11:14:23;12.82;;;9.15;;
1475;SDS011;730;48.870;12.542;2023-03-08T11:19:49;11.55;;;9.35;;
1475;SDS011;730;48.870;12.542;2023-03-08T11:36:03;12.90;;;9.77;;
1475;SDS011;730;48.870;12.542;2023-03-08T11:38:34;13.23;;;10.15;;
1475;SDS011;730;48.870;12.542;2023-03-08T11:41:06;13.60;;;10.05;;
1475;SDS011;730;48.870;12.542;2023-03-08T11:47:02;14.60;;;10.07;;
1475;SDS011;730;48.870;12.542;2023-03-08T11:57:14;13.13;;;11.73;;
1475;SDS011;730;48.870;12.542;2023-03-08T11:59:47;14.55;;;11.00;;
1475;SDS011;730;48.870;12.542;2023-03-08T12:02:19;13.73;;;10.30;;
1475;SDS011;730;48.870;12.542;2023-03-08T12:04:55;14.17;;;10.40;;
1475;SDS011;730;48.870;12.542;2023-03-08T12:07:26;14.90;;;10.75;;
1475;SDS011;730;48.870;12.542;2023-03-08T12:18:34;13.73;;;9.80;;
1475;SDS011;730;48.870;12.542;2023-03-08T12:21:10;12.93;;;10.23;;
1475;SDS011;730;48.870;12.542;2023-03-08T12:23:48;15.97;;;10.63;;
1475;SDS011;730;48.870;12.542;2023-03-08T12:26:33;13.65;;;10.55;;
1475;SDS011;730;48.870;12.542;2023-03-08T12:29:14;11.07;;;9.85;;
1475;SDS011;730;48.870;12.542;2023-03-08T12:31:48;14.15;;;11.02;;
1475;SDS011;730;48.870;12.542;2023-03-08T12:37:00;14.33;;;9.77;;
1475;SDS011;730;48.870;12.542;2023-03-08T12:42:00;13.60;;;10.67;;
1475;SDS011;730;48.870;12.542;2023-03-08T12:44:37;17.10;;;11.30;;
1475;SDS011;730;48.870;12.542;2023-03-08T12:49:38;16.33;;;10.95;;
1475;SDS011;730;48.870;12.542;2023-03-08T12:57:50;15.37;;;12.60;;
1475;SDS011;730;48.870;12.542;2023-03-08T13:02:58;16.33;;;12.27;;
1475;SDS011;730;48.870;12.542;2023-03-08T13:05:33;13.20;;;11.60;;
1475;SDS011;730;48.870;12.542;2023-03-08T13:13:28;15.52;;;11.80;;
1475;SDS011;730;48.870;12.542;2023-03-08T13:16:04;22.40;;;16.77;;
1475;SDS011;730;48.870;12.542;2023-03-08T13:18:31;16.98;;;12.52;;
1475;SDS011;730;48.870;12.542;2023-03-08T13:21:03;25.08;;;17.10;;
1475;SDS011;730;48.870;12.542;2023-03-08T13:26:58;17.85;;;13.35;;
1475;SDS011;730;48.870;12.542;2023-03-08T13:29:46;14.15;;;11.77;;
1475;SDS011;730;48.870;12.542;2023-03-08T13:32:17;15.40;;;12.47;;
1475;SDS011;730;48.870;12.542;2023-03-08T13:34:58;14.20;;;11.80;;
1475;SDS011;730;48.870;12.542;2023-03-08T13:37:27;16.13;;;11.83;;
1475;SDS011;730;48.870;12.542;2023-03-08T13:39:55;19.13;;;12.27;;
1475;SDS011;730;48.870;12.542;2023-03-08T13:42:24;14.33;;;11.03;;
1475;SDS011;730;48.870;12.542;2023-03-08T13:44:52;12.93;;;10.60;;
1475;SDS011;730;48.870;12.542;2023-03-08T13:47:31;13.47;;;11.87;;
1475;SDS011;730;48.870;12.542;2023-03-08T13:49:59;14.75;;;11.23;;
1475;SDS011;730;48.870;12.542;2023-03-08T13:52:30;13.37;;;11.13;;
1475;SDS011;730;48.870;12.542;2023-03-08T13:55:00;17.83;;;10.97;;
1475;SDS011;730;48.870;12.542;2023-03-08T13:57:32;15.60;;;11.73;;
1475;SDS011;730;48.870;12.542;2023-03-08T14:00:18;14.80;;;10.75;;
1475;SDS011;730;48.870;12.542;2023-03-08T14:02:45;20.33;;;14.45;;
1475;SDS011;730;48.870;12.542;2023-03-08T14:05:19;15.57;;;12.05;;
1475;SDS011;730;48.870;12.542;2023-03-08T14:08:22;23.63;;;16.42;;
1475;SDS011;730;48.870;12.542;2023-03-08T14:10:44;15.27;;;12.00;;
1475;SDS011;730;48.870;12.542;2023-03-08T14:13:18;14.93;;;11.67;;
1475;SDS011;730;48.870;12.542;2023-03-08T14:15:51;15.82;;;11.70;;
1475;SDS011;730;48.870;12.542;2023-03-08T14:18:38;14.40;;;11.32;;
1475;SDS011;730;48.870;12.542;2023-03-08T14:23:46;15.60;;;11.23;;
1475;SDS011;730;48.870;12.542;2023-03-08T14:28:49;15.27;;;11.97;;
1475;SDS011;730;48.870;12.542;2023-03-08T14:31:26;14.30;;;10.37;;
1475;SDS011;730;48.870;12.542;2023-03-08T14:34:00;17.38;;;12.20;;
1475;SDS011;730;48.870;12.542;2023-03-08T14:36:28;15.57;;;10.30;;
1475;SDS011;730;48.870;12.542;2023-03-08T14:38:57;14.45;;;10.68;;
1475;SDS011;730;48.870;12.542;2023-03-08T14:41:34;15.00;;;12.10;;
1475;SDS011;730;48.870;12.542;2023-03-08T14:44:01;15.60;;;12.27;;
1475;SDS011;730;48.870;12.542;2023-03-08T14:46:29;15.23;;;10.90;;
1475;SDS011;730;48.870;12.542;2023-03-08T14:49:00;15.38;;;12.00;;
1475;SDS011;730;48.870;12.542;2023-03-08T14:51:33;15.13;;;12.45;;
1475;SDS011;730;48.870;12.542;2023-03-08T14:54:05;16.80;;;12.38;;
1475;SDS011;730;48.870;12.542;2023-03-08T14:56:44;14.47;;;11.20;;
1475;SDS011;730;48.870;12.542;2023-03-08T14:59:11;16.50;;;12.27;;
1475;SDS011;730;48.870;12.542;2023-03-08T15:01:37;16.52;;;12.48;;
1475;SDS011;730;48.870;12.542;2023-03-08T15:04:18;14.93;;;11.63;;
1475;SDS011;730;48.870;12.542;2023-03-08T15:06:51;15.73;;;11.95;;
1475;SDS011;730;48.870;12.542;2023-03-08T15:09:19;19.93;;;14.33;;
1475;SDS011;730;48.870;12.542;2023-03-08T15:11:46;18.15;;;11.88;;
1475;SDS011;730;48.870;12.542;2023-03-08T15:14:15;16.90;;;12.98;;
1475;SDS011;730;48.870;12.542;2023-03-08T15:16:41;17.70;;;12.63;;
1475;SDS011;730;48.870;12.542;2023-03-08T15:19:08;17.15;;;12.45;;
1475;SDS011;730;48.870;12.542;2023-03-08T15:21:35;17.05;;;11.93;;
1475;SDS011;730;48.870;12.542;2023-03-08T15:24:01;16.70;;;12.37;;
1475;SDS011;730;48.870;12.542;2023-03-08T15:26:29;16.52;;;12.68;;
1475;SDS011;730;48.870;12.542;2023-03-08T15:28:56;19.60;;;13.55;;
1475;SDS011;730;48.870;12.542;2023-03-08T15:31:22;20.17;;;13.30;;
1475;SDS011;730;48.870;12.542;2023-03-08T15:33:49;14.90;;;11.50;;
1475;SDS011;730;48.870;12.542;2023-03-08T15:36:16;15.13;;;10.90;;
1475;SDS011;730;48.870;12.542;2023-03-08T15:38:44;13.50;;;11.57;;
1475;SDS011;730;48.870;12.542;2023-03-08T15:41:11;14.82;;;11.95;;
1475;SDS011;730;48.870;12.542;2023-03-08T15:43:38;15.80;;;12.38;;
1475;SDS011;730;48.870;12.542;2023-03-08T15:46:04;15.93;;;11.55;;
1475;SDS011;730;48.870;12.542;2023-03-08T15:48:30;17.13;;;13.20;;
1475;SDS011;730;48.870;12.542;2023-03-08T15:50:56;13.33;;;11.93;;
1475;SDS011;730;48.870;12.542;2023-03-08T15:53:23;15.40;;;12.30;;
1475;SDS011;730;48.870;12.542;2023-03-08T15:55:50;14.70;;;11.80;;
1475;SDS011;730;48.870;12.542;2023-03-08T15:58:16;14.68;;;11.63;;
1475;SDS011;730;48.870;12.542;2023-03-08T16:00:42;17.30;;;13.37;;
1475;SDS011;730;48.870;12.542;2023-03-08T16:03:11;16.63;;;13.03;;
1475;SDS011;730;48.870;12.542;2023-03-08T16:05:39;14.15;;;12.65;;
1475;SDS011;730;48.870;12.542;2023-03-08T16:08:05;17.40;;;12.00;;
1475;SDS011;730;48.870;12.542;2023-03-08T16:10:32;17.00;;;12.87;;
1475;SDS011;730;48.870;12.542;2023-03-08T16:13:05;17.23;;;12.40;;
1475;SDS011;730;48.870;12.542;2023-03-08T16:15:32;15.00;;;12.10;;
1475;SDS011;730;48.870;12.542;2023-03-08T16:17:58;16.30;;;12.57;;
1475;SDS011;730;48.870;12.542;2023-03-08T16:20:24;15.13;;;12.07;;
1475;SDS011;730;48.870;12.542;2023-03-08T16:22:50;14.40;;;12.00;;
1475;SDS011;730;48.870;12.542;2023-03-08T16:25:17;15.80;;;12.40;;
1475;SDS011;730;48.870;12.542;2023-03-08T16:27:43;14.67;;;12.30;;
1475;SDS011;730;48.870;12.542;2023-03-08T16:30:10;24.47;;;16.10;;
1475;SDS011;730;48.870;12.542;2023-03-08T16:32:37;18.80;;;13.00;;
1475;SDS011;730;48.870;12.542;2023-03-08T16:35:03;15.10;;;12.70;;